Flight Number: AVA1995 Duration: 1:15
Departure: Frankfurt am Main (EDDF) at 09:00 Distance: 288.76 Nm
Arrival: Courchevel (LFLJ) at 10:15 Equipment: B1900D

Weather Information
Frankfurt / M-Flughafen, Germany (EDDF) 50-03N 008-36E 113M Apr 07, 2020 - 11:50 AM EDT / 2020.04.07 1550 UTC
Wind: from the ENE (060 degrees) at 12 MPH (10 KT) (direction variable):0
Visibility: greater than 7 mile(s):0 Temperature: 73 F (23 C) Dew Point: 42 F (6 C) Relative Humidity: 33% Pressure (altimeter): 30.33 in. Hg (1027 hPa)
ob: EDDF 071550Z 06010KT 360V100 CAVOK 23/06 Q1027 NOSIG cycle: 16
Sunrise: 04:50 Sunset: 18:04 (UTC)

404 Not Found

Not Found

The requested URL /data/observations/metar/decoded/LFLJ.TXT was not found on this server.


Sunrise: 05:03 Sunset: 18:06 (UTC)

TAF: 404 Not Found

Not Found

The requested URL /data/forecasts/taf/stations/LFLJ.TXT was not found on this server.



Previous Pireps for this route
Date Aircraft Flight time Fuel used Landing rate On time
2017-08-25B1900D01.231397-448Charter
(pireps marked green are flown by you)

Route map